createdAt,value
2022-10-19T00:00:39.750Z,61.39
2022-10-19T00:03:31.031Z,61.74
2022-10-19T00:06:11.902Z,61.76
2022-10-19T00:08:43.679Z,61.84
2022-10-19T00:11:15.286Z,61.96
2022-10-19T00:13:46.640Z,61.97
2022-10-19T00:16:20.335Z,61.97
2022-10-19T00:18:50.166Z,62.07
2022-10-19T00:21:22.091Z,62.42
2022-10-19T00:23:53.685Z,62.28
2022-10-19T00:26:25.343Z,62.41
2022-10-19T00:28:57.712Z,62.42
2022-10-19T00:31:29.555Z,62.46
2022-10-19T00:34:01.532Z,62.61
2022-10-19T00:36:35.751Z,62.72
2022-10-19T00:39:09.672Z,62.72
2022-10-19T00:41:42.152Z,62.93
2022-10-19T00:44:44.050Z,62.93
2022-10-19T00:47:15.881Z,63.19
2022-10-19T00:49:47.880Z,63.14
2022-10-19T00:52:24.622Z,63.16
2022-10-19T00:54:57.791Z,63.20
2022-10-19T00:57:32.658Z,63.27
2022-10-19T01:00:07.017Z,63.42
2022-10-19T01:02:38.820Z,63.42
2022-10-19T01:05:12.398Z,63.42
2022-10-19T01:07:43.981Z,63.49
2022-10-19T01:10:15.730Z,63.56
2022-10-19T01:12:59.367Z,63.61
2022-10-19T01:15:42.171Z,63.81
2022-10-19T01:18:20.906Z,63.83
2022-10-19T01:21:15.499Z,63.83
2022-10-19T01:24:07.752Z,64.03
2022-10-19T01:27:12.578Z,64.06
2022-10-19T01:30:01.225Z,64.17
2022-10-19T01:32:41.979Z,64.12
2022-10-19T01:35:19.890Z,64.24
2022-10-19T01:37:57.098Z,64.37
2022-10-19T01:40:32.620Z,64.37
2022-10-19T01:43:09.224Z,64.32
2022-10-19T01:45:47.214Z,64.43
2022-10-19T01:48:23.079Z,64.41
2022-10-19T01:50:58.929Z,64.39
2022-10-19T01:53:35.698Z,64.49
2022-10-19T01:56:09.796Z,64.57
2022-10-19T01:58:44.951Z,64.58
2022-10-19T02:01:20.924Z,64.65
2022-10-19T02:03:54.115Z,64.72
2022-10-19T02:06:26.054Z,64.79
2022-10-19T02:08:57.515Z,64.85
2022-10-19T02:11:29.783Z,64.78
2022-10-19T02:14:06.009Z,64.75
2022-10-19T02:16:41.910Z,64.80
2022-10-19T02:19:16.624Z,64.91
2022-10-19T02:21:48.166Z,64.96
2022-10-19T02:24:19.666Z,64.92
2022-10-19T02:26:51.644Z,64.87
2022-10-19T02:29:23.321Z,65.02
2022-10-19T02:31:54.652Z,65.11
2022-10-19T02:34:26.514Z,65.19
2022-10-19T02:36:58.458Z,65.28
2022-10-19T02:39:30.371Z,65.39
2022-10-19T02:42:07.509Z,65.36
2022-10-19T02:44:43.499Z,65.33
2022-10-19T02:47:19.950Z,65.33
2022-10-19T02:49:52.954Z,65.44
2022-10-19T02:52:24.215Z,65.41
2022-10-19T02:54:55.536Z,65.43
2022-10-19T02:57:27.562Z,65.53
2022-10-19T02:59:59.249Z,65.68
2022-10-19T03:02:30.588Z,65.62
2022-10-19T03:05:02.002Z,65.65
2022-10-19T03:07:33.538Z,65.65
2022-10-19T03:10:05.367Z,65.64
2022-10-19T03:12:36.794Z,65.76
2022-10-19T03:15:11.764Z,65.78
2022-10-19T03:17:43.169Z,65.80
2022-10-19T03:20:14.487Z,65.70
2022-10-19T03:22:45.876Z,65.75
2022-10-19T03:25:17.686Z,65.69
2022-10-19T03:27:49.111Z,65.68
2022-10-19T03:30:20.460Z,65.73
2022-10-19T03:32:51.836Z,65.72
2022-10-19T03:35:23.182Z,65.73
2022-10-19T03:37:54.539Z,65.87
2022-10-19T03:40:25.964Z,65.84
2022-10-19T03:42:57.278Z,65.92
2022-10-19T03:45:28.632Z,65.88
2022-10-19T03:48:00.125Z,65.91
2022-10-19T03:50:31.447Z,66.04
2022-10-19T03:55:39.077Z,66.21
2022-10-19T03:58:10.399Z,66.36
2022-10-19T04:00:42.113Z,66.35
2022-10-19T04:03:13.504Z,66.36
2022-10-19T04:05:44.823Z,66.32
2022-10-19T04:08:16.304Z,66.38
2022-10-19T04:10:47.848Z,66.34
2022-10-19T04:13:19.300Z,66.31
2022-10-19T04:15:50.644Z,66.40
2022-10-19T04:18:22.073Z,66.36
2022-10-19T04:20:58.593Z,66.35
2022-10-19T04:23:31.765Z,66.46
2022-10-19T04:26:04.933Z,66.59
2022-10-19T04:28:37.006Z,66.56
2022-10-19T04:31:09.401Z,66.50
2022-10-19T04:33:41.355Z,66.56
2022-10-19T04:36:13.649Z,66.60
2022-10-19T04:38:45.061Z,66.71
2022-10-19T04:41:19.713Z,66.63
2022-10-19T04:43:55.968Z,66.62
2022-10-19T04:46:29.007Z,66.69
2022-10-19T04:49:01.216Z,66.71
2022-10-19T04:51:32.984Z,66.70
2022-10-19T04:54:04.861Z,66.77
2022-10-19T04:56:36.225Z,66.84
2022-10-19T04:59:07.610Z,66.81
2022-10-19T05:01:44.758Z,66.86
2022-10-19T05:04:18.714Z,66.98
2022-10-19T05:06:50.048Z,67.02
2022-10-19T05:09:22.441Z,66.91
2022-10-19T05:11:53.742Z,67.06
2022-10-19T05:14:25.424Z,67.08
2022-10-19T05:16:56.875Z,67.14
2022-10-19T05:19:28.305Z,67.09
2022-10-19T05:21:59.753Z,67.14
2022-10-19T05:24:32.655Z,67.10
2022-10-19T05:27:03.956Z,67.23
2022-10-19T05:29:35.324Z,67.32
2022-10-19T05:32:07.109Z,67.31
2022-10-19T05:34:38.426Z,67.39
2022-10-19T05:37:09.854Z,67.60
2022-10-19T05:39:41.522Z,67.61
2022-10-19T05:42:13.255Z,67.72
2022-10-19T05:44:46.676Z,67.76
2022-10-19T05:47:18.157Z,67.82
2022-10-19T05:49:50.103Z,67.82
2022-10-19T05:52:21.378Z,67.77
2022-10-19T05:54:54.070Z,67.86
2022-10-19T05:57:25.705Z,67.85
2022-10-19T05:59:58.418Z,67.97
2022-10-19T06:02:29.695Z,67.82
2022-10-19T06:05:01.012Z,67.93
2022-10-19T06:07:33.863Z,67.93
2022-10-19T06:10:10.054Z,67.96
2022-10-19T06:12:41.588Z,68.08
2022-10-19T06:15:13.465Z,68.04
2022-10-19T06:17:44.842Z,68.11
2022-10-19T06:20:17.485Z,68.10
2022-10-19T06:22:48.867Z,68.14
2022-10-19T06:25:21.241Z,68.12
2022-10-19T06:27:53.164Z,68.09
2022-10-19T06:30:26.175Z,68.27
2022-10-19T06:32:57.609Z,68.29
2022-10-19T06:35:29.071Z,68.27
2022-10-19T06:38:01.144Z,68.29
2022-10-19T06:40:32.895Z,68.32
2022-10-19T06:43:04.834Z,68.34
2022-10-19T06:45:38.189Z,68.37
2022-10-19T06:48:09.759Z,68.37
2022-10-19T06:50:42.107Z,68.38
2022-10-19T06:53:13.591Z,68.37
2022-10-19T06:55:45.029Z,68.34
2022-10-19T06:58:16.463Z,68.41
2022-10-19T07:00:54.871Z,68.30
2022-10-19T07:03:26.900Z,68.38
2022-10-19T07:06:00.035Z,68.28
2022-10-19T07:08:32.961Z,68.38
2022-10-19T07:11:07.488Z,68.39
2022-10-19T07:13:39.335Z,68.34
2022-10-19T07:16:17.609Z,68.32
2022-10-19T07:18:53.809Z,68.34
2022-10-19T07:21:25.542Z,68.28
2022-10-19T07:23:56.917Z,68.27
2022-10-19T07:26:30.637Z,68.05
2022-10-19T07:29:02.944Z,68.01
2022-10-19T07:31:35.058Z,67.91
2022-10-19T07:34:07.603Z,68.22
2022-10-19T07:36:39.851Z,68.45
2022-10-19T07:39:12.611Z,67.37
2022-10-19T07:41:44.525Z,67.00
2022-10-19T07:44:16.696Z,66.76
2022-10-19T07:46:47.996Z,66.82
2022-10-19T07:49:20.759Z,67.35
2022-10-19T07:51:55.058Z,66.02
2022-10-19T07:54:27.477Z,65.97
2022-10-19T07:56:58.859Z,66.07
2022-10-19T07:59:30.665Z,65.95
2022-10-19T08:02:04.713Z,65.80
2022-10-19T08:07:30.037Z,65.36
2022-10-19T08:10:01.478Z,65.37
2022-10-19T08:12:36.235Z,65.39
2022-10-19T08:15:09.540Z,65.31
2022-10-19T08:17:40.868Z,65.31
2022-10-19T08:20:13.200Z,65.36
2022-10-19T08:22:45.379Z,65.43
2022-10-19T08:25:17.028Z,65.36
2022-10-19T08:27:48.656Z,65.26
2022-10-19T08:30:20.328Z,65.32
2022-10-19T08:32:51.758Z,65.30
2022-10-19T08:35:23.071Z,65.17
2022-10-19T08:37:57.266Z,65.32
2022-10-19T08:40:32.105Z,66.03
2022-10-19T08:43:13.487Z,64.67
2022-10-19T08:45:50.874Z,64.37
2022-10-19T08:48:28.354Z,63.61
2022-10-19T08:51:01.833Z,63.35
2022-10-19T08:53:44.795Z,63.27
2022-10-19T08:56:51.110Z,63.26
2022-10-19T08:59:34.908Z,63.23
2022-10-19T09:02:14.847Z,63.21
2022-10-19T09:04:51.447Z,63.46
2022-10-19T09:07:27.836Z,63.40
2022-10-19T09:10:03.889Z,63.52
2022-10-19T09:12:43.432Z,63.60
2022-10-19T09:15:19.467Z,63.36
2022-10-19T09:17:51.087Z,62.96
2022-10-19T09:20:26.228Z,62.92
2022-10-19T09:23:13.495Z,62.96
2022-10-19T09:25:45.075Z,62.63
2022-10-19T09:28:33.913Z,62.32
2022-10-19T09:31:15.945Z,62.08
2022-10-19T09:33:53.819Z,62.14
2022-10-19T09:36:49.475Z,61.80
2022-10-19T09:39:23.515Z,61.61
2022-10-19T09:42:00.242Z,61.63
2022-10-19T09:44:33.348Z,61.47
2022-10-19T09:47:20.546Z,61.27
2022-10-19T09:49:51.872Z,61.27
2022-10-19T09:52:35.940Z,61.34
2022-10-19T09:55:18.761Z,61.35
2022-10-19T09:57:52.020Z,61.31
2022-10-19T10:00:26.068Z,61.50
2022-10-19T10:02:58.378Z,61.56
2022-10-19T10:05:35.229Z,61.62
2022-10-19T10:08:13.815Z,61.73
2022-10-19T10:10:49.735Z,61.74
2022-10-19T10:13:22.799Z,61.22
2022-10-19T10:16:01.666Z,61.20
2022-10-19T10:18:37.325Z,61.19
2022-10-19T10:21:25.397Z,61.12
2022-10-19T10:24:06.878Z,60.77
2022-10-19T10:26:43.685Z,60.28
2022-10-19T10:29:27.169Z,60.04
2022-10-19T10:32:02.940Z,60.00
2022-10-19T10:34:58.414Z,60.03
2022-10-19T10:37:37.245Z,59.91
2022-10-19T10:40:23.671Z,59.97
2022-10-19T10:42:57.663Z,60.26
2022-10-19T10:45:33.781Z,60.15
2022-10-19T10:48:21.498Z,60.03
2022-10-19T10:50:53.049Z,60.10
2022-10-19T10:53:37.420Z,60.17
2022-10-19T10:56:24.238Z,60.22
2022-10-19T10:59:02.964Z,60.01
2022-10-19T11:01:41.402Z,59.96
2022-10-19T11:04:19.187Z,59.82
2022-10-19T11:07:03.092Z,59.89
2022-10-19T11:09:36.010Z,59.76
2022-10-19T11:12:12.755Z,59.80
2022-10-19T11:14:50.969Z,59.95
2022-10-19T11:17:26.454Z,60.07
2022-10-19T11:19:58.049Z,59.97
2022-10-19T11:22:34.553Z,59.65
2022-10-19T11:25:24.876Z,59.62
2022-10-19T11:28:11.048Z,59.21
2022-10-19T11:30:56.583Z,59.17
2022-10-19T11:33:44.595Z,58.90
2022-10-19T11:36:29.766Z,58.80
2022-10-19T11:39:13.308Z,58.82
2022-10-19T11:41:54.877Z,58.99
2022-10-19T11:44:37.183Z,59.05
2022-10-19T11:47:24.894Z,59.03
2022-10-19T11:50:10.962Z,59.06
2022-10-19T11:52:50.779Z,59.12
2022-10-19T11:55:36.584Z,58.92
2022-10-19T11:58:32.340Z,58.88
2022-10-19T12:01:17.887Z,58.95
2022-10-19T12:04:34.439Z,59.03
2022-10-19T12:07:22.193Z,58.72
2022-10-19T12:10:01.906Z,58.50
2022-10-19T12:15:35.303Z,58.00
2022-10-19T12:18:15.414Z,57.83
2022-10-19T12:20:50.836Z,57.82
2022-10-19T12:23:29.741Z,57.93
2022-10-19T12:26:04.676Z,57.93
2022-10-19T12:28:40.330Z,57.84
2022-10-19T12:31:14.025Z,57.71
2022-10-19T12:33:53.456Z,57.60
2022-10-19T12:36:38.783Z,57.66
2022-10-19T12:39:18.952Z,57.85
2022-10-19T12:41:59.847Z,57.90
2022-10-19T12:44:45.423Z,57.94
2022-10-19T12:47:22.404Z,58.02
2022-10-19T12:49:56.748Z,58.08
2022-10-19T12:52:53.171Z,58.11
2022-10-19T12:55:34.678Z,58.04
2022-10-19T12:58:20.972Z,58.14
2022-10-19T13:01:02.126Z,58.03
2022-10-19T13:03:36.923Z,58.10
2022-10-19T13:06:13.250Z,58.09
2022-10-19T13:08:48.700Z,58.13
2022-10-19T13:11:21.540Z,57.99
2022-10-19T13:14:02.426Z,57.88
2022-10-19T13:17:01.867Z,57.71
2022-10-19T13:19:33.444Z,57.81
2022-10-19T13:22:28.806Z,57.79
2022-10-19T13:25:24.170Z,57.80
2022-10-19T13:27:58.148Z,57.91
2022-10-19T13:31:06.020Z,57.99
2022-10-19T13:33:55.579Z,58.02
2022-10-19T13:36:28.878Z,57.91
2022-10-19T13:39:16.573Z,58.00
2022-10-19T13:41:53.717Z,57.97
2022-10-19T13:44:34.444Z,58.10
2022-10-19T13:47:39.059Z,58.08
2022-10-19T13:50:27.934Z,58.25
2022-10-19T13:53:21.798Z,58.17
2022-10-19T14:00:06.291Z,58.11
2022-10-19T14:03:11.672Z,58.24
2022-10-19T14:06:00.776Z,58.42
2022-10-19T14:08:51.818Z,58.55
2022-10-19T14:11:28.194Z,58.55
2022-10-19T14:14:21.338Z,58.38
2022-10-19T14:16:59.638Z,58.52
2022-10-19T14:19:44.281Z,58.57
2022-10-19T14:22:26.986Z,58.53
2022-10-19T14:25:06.196Z,58.39
2022-10-19T14:27:39.586Z,58.33
2022-10-19T14:30:24.970Z,58.37
2022-10-19T14:33:00.986Z,58.38
2022-10-19T14:35:40.823Z,58.47
2022-10-19T14:38:23.181Z,58.59
2022-10-19T14:40:55.988Z,58.57
2022-10-19T14:43:30.477Z,58.59
2022-10-19T14:46:21.727Z,58.64
2022-10-19T14:48:59.837Z,58.66
2022-10-19T14:51:39.697Z,58.80
2022-10-19T14:54:17.662Z,58.87
2022-10-19T14:56:55.626Z,58.80
2022-10-19T14:59:31.051Z,58.86
2022-10-19T15:02:06.432Z,58.97
2022-10-19T15:04:40.987Z,59.00
2022-10-19T15:07:21.607Z,59.15
2022-10-19T15:09:57.239Z,59.09
2022-10-19T15:12:36.256Z,59.10
2022-10-19T15:15:17.502Z,59.12
2022-10-19T15:17:55.669Z,59.11
2022-10-19T15:20:34.094Z,59.19
2022-10-19T15:23:33.770Z,59.28
2022-10-19T15:26:17.276Z,59.31
2022-10-19T15:28:50.353Z,59.39
2022-10-19T15:31:25.410Z,59.59
2022-10-19T15:33:59.394Z,59.64
2022-10-19T15:36:33.494Z,59.68
2022-10-19T15:39:24.981Z,59.96
2022-10-19T15:41:57.932Z,60.00
2022-10-19T15:44:41.106Z,60.16
2022-10-19T15:47:24.950Z,60.28
2022-10-19T15:49:59.797Z,60.28
2022-10-19T15:52:33.506Z,60.41
2022-10-19T15:55:05.697Z,60.39
2022-10-19T15:57:39.842Z,60.47
2022-10-19T16:00:17.287Z,60.62
2022-10-19T16:02:48.973Z,60.60
2022-10-19T16:05:20.604Z,60.64
2022-10-19T16:07:52.747Z,60.62
2022-10-19T16:10:25.945Z,60.71
2022-10-19T16:12:57.420Z,60.72
2022-10-19T16:15:28.837Z,60.90
2022-10-19T16:18:01.714Z,61.03
2022-10-19T16:20:33.210Z,61.21
2022-10-19T16:23:04.655Z,61.22
2022-10-19T16:25:36.356Z,61.30
2022-10-19T16:28:07.847Z,61.45
2022-10-19T16:30:39.258Z,61.51
2022-10-19T16:33:10.738Z,61.54
2022-10-19T16:35:42.303Z,61.52
2022-10-19T16:38:13.941Z,61.64
2022-10-19T16:40:45.821Z,61.76
2022-10-19T16:43:17.268Z,61.88
2022-10-19T16:45:48.723Z,62.11
2022-10-19T16:48:23.857Z,62.25
2022-10-19T16:51:24.203Z,62.28
2022-10-19T16:53:58.976Z,62.31
2022-10-19T16:56:31.841Z,62.45
2022-10-19T16:59:06.831Z,62.39
2022-10-19T17:01:38.429Z,62.47
2022-10-19T17:04:10.041Z,62.65
2022-10-19T17:06:42.188Z,62.64
2022-10-19T17:09:37.016Z,62.82
2022-10-19T17:12:08.371Z,62.97
2022-10-19T17:14:41.522Z,62.94
2022-10-19T17:17:13.993Z,63.04
2022-10-19T17:19:45.442Z,63.25
2022-10-19T17:22:16.920Z,63.19
2022-10-19T17:24:48.604Z,63.33
2022-10-19T17:27:20.185Z,63.41
2022-10-19T17:29:51.643Z,63.42
2022-10-19T17:32:23.166Z,63.48
2022-10-19T17:34:56.945Z,63.49
2022-10-19T17:37:26.844Z,63.54
2022-10-19T17:39:58.278Z,63.73
2022-10-19T17:42:31.060Z,63.60
2022-10-19T17:45:02.471Z,63.58
2022-10-19T17:47:34.301Z,63.60
2022-10-19T17:50:06.842Z,63.65
2022-10-19T17:52:38.293Z,63.78
2022-10-19T17:55:13.149Z,63.73
2022-10-19T17:57:45.074Z,63.68
2022-10-19T18:00:17.621Z,63.77
2022-10-19T18:02:49.750Z,63.93
2022-10-19T18:05:21.310Z,64.04
2022-10-19T18:07:53.927Z,64.01
2022-10-19T18:10:25.403Z,64.07
2022-10-19T18:12:56.932Z,64.13
2022-10-19T18:15:28.395Z,64.16
2022-10-19T18:18:01.148Z,64.21
2022-10-19T18:20:32.576Z,64.31
2022-10-19T18:23:04.380Z,64.31
2022-10-19T18:25:53.412Z,64.41
2022-10-19T18:28:25.622Z,64.48
2022-10-19T18:30:57.170Z,64.37
2022-10-19T18:33:32.450Z,64.44
2022-10-19T18:36:06.009Z,64.53
2022-10-19T18:38:38.499Z,64.57
2022-10-19T18:43:54.604Z,64.53
2022-10-19T18:46:27.812Z,64.57
2022-10-19T18:49:00.594Z,64.53
2022-10-19T18:51:32.887Z,64.54
2022-10-19T18:54:04.763Z,64.59
2022-10-19T18:56:37.355Z,64.67
2022-10-19T18:59:08.861Z,64.73
2022-10-19T19:01:41.583Z,64.73
2022-10-19T19:04:13.189Z,64.73
2022-10-19T19:06:44.606Z,64.79
2022-10-19T19:09:18.586Z,64.85
2022-10-19T19:11:51.461Z,64.83
2022-10-19T19:14:22.921Z,64.87
2022-10-19T19:16:54.838Z,64.90
2022-10-19T19:19:27.539Z,64.88
2022-10-19T19:22:05.103Z,64.87
2022-10-19T19:24:39.559Z,64.86
2022-10-19T19:27:11.722Z,64.86
2022-10-19T19:29:43.106Z,65.02
2022-10-19T19:32:14.546Z,65.03
2022-10-19T19:34:46.160Z,64.95
2022-10-19T19:37:17.858Z,65.06
2022-10-19T19:39:49.274Z,65.01
2022-10-19T19:42:23.275Z,65.18
2022-10-19T19:44:57.244Z,65.24
2022-10-19T19:47:28.784Z,65.36
2022-10-19T19:50:00.331Z,65.37
2022-10-19T19:52:31.882Z,65.31
2022-10-19T19:55:03.642Z,65.40
2022-10-19T19:57:35.504Z,65.38
2022-10-19T20:00:09.841Z,65.44
2022-10-19T20:02:41.378Z,65.48
2022-10-19T20:05:12.941Z,65.58
2022-10-19T20:07:44.338Z,65.60
2022-10-19T20:10:16.467Z,65.59
2022-10-19T20:12:48.875Z,65.64
2022-10-19T20:15:21.119Z,65.70
2022-10-19T20:17:52.495Z,65.70
2022-10-19T20:20:23.887Z,65.78
2022-10-19T20:22:55.290Z,65.82
2022-10-19T20:25:26.882Z,65.83
2022-10-19T20:27:58.301Z,65.89
2022-10-19T20:30:29.700Z,65.91
2022-10-19T20:33:01.129Z,65.98
2022-10-19T20:35:32.694Z,66.01
2022-10-19T20:38:04.309Z,66.12
2022-10-19T20:40:36.266Z,66.08
2022-10-19T20:43:07.751Z,66.18
2022-10-19T20:45:39.837Z,66.17
2022-10-19T20:48:11.299Z,66.11
2022-10-19T20:50:42.752Z,66.16
2022-10-19T20:53:14.122Z,66.20
2022-10-19T20:55:45.501Z,66.25
2022-10-19T20:58:17.111Z,66.37
2022-10-19T21:00:48.556Z,66.35
2022-10-19T21:03:21.831Z,66.39
2022-10-19T21:05:53.240Z,66.50
2022-10-19T21:08:24.723Z,66.57
2022-10-19T21:10:56.315Z,66.55
2022-10-19T21:13:27.857Z,66.64
2022-10-19T21:15:59.237Z,66.76
2022-10-19T21:18:30.657Z,66.82
2022-10-19T21:21:02.040Z,66.80
2022-10-19T21:23:33.470Z,66.86
2022-10-19T21:26:05.123Z,66.93
2022-10-19T21:28:36.617Z,66.88
2022-10-19T21:31:10.513Z,66.89
2022-10-19T21:33:41.967Z,66.90
2022-10-19T21:36:15.371Z,66.97
2022-10-19T21:38:46.792Z,66.84
2022-10-19T21:41:23.733Z,66.94
2022-10-19T21:43:57.891Z,66.93
2022-10-19T21:46:30.190Z,66.85
2022-10-19T21:49:01.732Z,66.97
2022-10-19T21:51:37.598Z,67.02
2022-10-19T21:56:50.064Z,67.07
2022-10-19T21:59:21.484Z,67.11
2022-10-19T22:01:54.720Z,67.16
2022-10-19T22:04:27.169Z,67.16
2022-10-19T22:06:59.697Z,67.25
2022-10-19T22:09:31.300Z,67.22
2022-10-19T22:12:02.765Z,67.15
2022-10-19T22:14:34.179Z,67.11
2022-10-19T22:17:05.880Z,67.01
2022-10-19T22:19:37.761Z,67.13
2022-10-19T22:22:09.250Z,67.13
2022-10-19T22:24:41.032Z,67.03
2022-10-19T22:27:12.540Z,67.08
2022-10-19T22:29:44.354Z,67.23
2022-10-19T22:32:15.762Z,67.24
2022-10-19T22:34:47.259Z,67.27
2022-10-19T22:37:18.675Z,67.24
2022-10-19T22:39:50.202Z,67.19
2022-10-19T22:42:21.657Z,67.18
2022-10-19T22:44:53.075Z,67.24
2022-10-19T22:47:24.576Z,67.25
2022-10-19T22:49:56.019Z,67.27
2022-10-19T22:52:27.407Z,67.24
2022-10-19T22:54:58.877Z,67.37
2022-10-19T22:57:30.308Z,67.44
2022-10-19T23:00:01.704Z,67.49
2022-10-19T23:02:33.193Z,67.56
2022-10-19T23:05:04.908Z,67.61
2022-10-19T23:07:38.179Z,67.64
2022-10-19T23:10:11.099Z,67.65
2022-10-19T23:12:42.519Z,67.74
2022-10-19T23:15:14.640Z,67.71
2022-10-19T23:17:46.079Z,67.64
2022-10-19T23:20:18.034Z,67.75
2022-10-19T23:22:50.812Z,67.70
2022-10-19T23:25:22.354Z,67.78
2022-10-19T23:27:53.798Z,67.79
2022-10-19T23:30:25.320Z,67.78
2022-10-19T23:32:56.827Z,67.86
2022-10-19T23:35:28.311Z,67.87
2022-10-19T23:37:59.676Z,67.96
2022-10-19T23:40:31.147Z,68.10
2022-10-19T23:43:02.531Z,68.24
2022-10-19T23:45:34.179Z,68.21
2022-10-19T23:48:06.377Z,68.23
2022-10-19T23:50:37.914Z,68.10
2022-10-19T23:53:09.418Z,68.02
2022-10-19T23:55:40.848Z,68.12
2022-10-19T23:58:12.433Z,68.15
